sensor_id;sensor_type;location;lat;lon;timestamp;P1;durP1;ratioP1;P2;durP2;ratioP2
2305;SDS011;1161;51.922;8.896;2024-01-30T00:00:01;49.47;;;29.90;;
2305;SDS011;1161;51.922;8.896;2024-01-30T00:02:30;42.17;;;26.00;;
2305;SDS011;1161;51.922;8.896;2024-01-30T00:04:57;57.17;;;26.17;;
2305;SDS011;1161;51.922;8.896;2024-01-30T00:07:24;49.70;;;25.60;;
2305;SDS011;1161;51.922;8.896;2024-01-30T00:09:50;46.37;;;25.30;;
2305;SDS011;1161;51.922;8.896;2024-01-30T00:12:17;51.53;;;27.07;;
2305;SDS011;1161;51.922;8.896;2024-01-30T00:14:44;67.63;;;26.40;;
2305;SDS011;1161;51.922;8.896;2024-01-30T00:17:12;56.97;;;26.20;;
2305;SDS011;1161;51.922;8.896;2024-01-30T00:19:40;56.70;;;26.27;;
2305;SDS011;1161;51.922;8.896;2024-01-30T00:22:06;43.60;;;26.40;;
2305;SDS011;1161;51.922;8.896;2024-01-30T00:24:33;47.07;;;26.77;;
2305;SDS011;1161;51.922;8.896;2024-01-30T00:26:59;43.57;;;26.83;;
2305;SDS011;1161;51.922;8.896;2024-01-30T00:29:26;52.80;;;26.07;;
2305;SDS011;1161;51.922;8.896;2024-01-30T00:31:56;60.53;;;28.60;;
2305;SDS011;1161;51.922;8.896;2024-01-30T00:34:23;48.67;;;27.43;;
2305;SDS011;1161;51.922;8.896;2024-01-30T00:36:51;57.27;;;29.30;;
2305;SDS011;1161;51.922;8.896;2024-01-30T00:39:18;47.37;;;25.03;;
2305;SDS011;1161;51.922;8.896;2024-01-30T00:41:44;48.97;;;28.87;;
2305;SDS011;1161;51.922;8.896;2024-01-30T00:44:12;50.20;;;25.80;;
2305;SDS011;1161;51.922;8.896;2024-01-30T00:46:38;46.17;;;27.50;;
2305;SDS011;1161;51.922;8.896;2024-01-30T00:49:05;55.90;;;27.50;;
2305;SDS011;1161;51.922;8.896;2024-01-30T00:51:32;46.53;;;28.93;;
2305;SDS011;1161;51.922;8.896;2024-01-30T00:54:00;55.00;;;29.20;;
2305;SDS011;1161;51.922;8.896;2024-01-30T00:56:28;44.43;;;27.37;;
2305;SDS011;1161;51.922;8.896;2024-01-30T00:58:55;48.37;;;25.90;;
2305;SDS011;1161;51.922;8.896;2024-01-30T01:01:22;55.30;;;27.10;;
2305;SDS011;1161;51.922;8.896;2024-01-30T01:03:49;49.43;;;27.47;;
2305;SDS011;1161;51.922;8.896;2024-01-30T01:06:15;43.40;;;25.33;;
2305;SDS011;1161;51.922;8.896;2024-01-30T01:08:42;49.03;;;29.13;;
2305;SDS011;1161;51.922;8.896;2024-01-30T01:11:10;69.17;;;28.40;;
2305;SDS011;1161;51.922;8.896;2024-01-30T01:13:37;57.13;;;29.07;;
2305;SDS011;1161;51.922;8.896;2024-01-30T01:16:04;45.47;;;26.33;;
2305;SDS011;1161;51.922;8.896;2024-01-30T01:18:31;59.37;;;29.90;;
2305;SDS011;1161;51.922;8.896;2024-01-30T01:20:58;48.77;;;28.80;;
2305;SDS011;1161;51.922;8.896;2024-01-30T01:23:25;42.40;;;26.33;;
2305;SDS011;1161;51.922;8.896;2024-01-30T01:25:52;56.53;;;30.73;;
2305;SDS011;1161;51.922;8.896;2024-01-30T01:28:24;57.70;;;28.40;;
2305;SDS011;1161;51.922;8.896;2024-01-30T01:30:51;48.93;;;27.10;;
2305;SDS011;1161;51.922;8.896;2024-01-30T01:33:17;53.77;;;28.10;;
2305;SDS011;1161;51.922;8.896;2024-01-30T01:35:44;68.87;;;31.63;;
2305;SDS011;1161;51.922;8.896;2024-01-30T01:38:11;53.37;;;30.47;;
2305;SDS011;1161;51.922;8.896;2024-01-30T01:40:38;57.43;;;29.37;;
2305;SDS011;1161;51.922;8.896;2024-01-30T01:43:06;56.33;;;29.60;;
2305;SDS011;1161;51.922;8.896;2024-01-30T01:45:34;49.33;;;26.47;;
2305;SDS011;1161;51.922;8.896;2024-01-30T01:48:00;51.77;;;27.00;;
2305;SDS011;1161;51.922;8.896;2024-01-30T01:50:27;54.30;;;27.87;;
2305;SDS011;1161;51.922;8.896;2024-01-30T01:52:54;52.57;;;29.00;;
2305;SDS011;1161;51.922;8.896;2024-01-30T01:55:22;50.97;;;28.47;;
2305;SDS011;1161;51.922;8.896;2024-01-30T01:57:50;59.87;;;27.60;;
2305;SDS011;1161;51.922;8.896;2024-01-30T02:00:16;47.37;;;27.60;;
2305;SDS011;1161;51.922;8.896;2024-01-30T02:02:46;56.50;;;27.37;;
2305;SDS011;1161;51.922;8.896;2024-01-30T02:05:13;59.13;;;29.90;;
2305;SDS011;1161;51.922;8.896;2024-01-30T02:07:40;61.83;;;32.17;;
2305;SDS011;1161;51.922;8.896;2024-01-30T02:10:08;56.87;;;27.50;;
2305;SDS011;1161;51.922;8.896;2024-01-30T02:12:35;67.13;;;30.00;;
2305;SDS011;1161;51.922;8.896;2024-01-30T02:15:02;61.47;;;27.77;;
2305;SDS011;1161;51.922;8.896;2024-01-30T02:17:30;52.47;;;26.70;;
2305;SDS011;1161;51.922;8.896;2024-01-30T02:19:58;47.90;;;25.60;;
2305;SDS011;1161;51.922;8.896;2024-01-30T02:22:26;43.37;;;26.97;;
2305;SDS011;1161;51.922;8.896;2024-01-30T02:24:53;49.60;;;26.93;;
2305;SDS011;1161;51.922;8.896;2024-01-30T02:27:20;50.63;;;25.57;;
2305;SDS011;1161;51.922;8.896;2024-01-30T02:29:47;48.73;;;26.07;;
2305;SDS011;1161;51.922;8.896;2024-01-30T02:32:14;48.73;;;24.70;;
2305;SDS011;1161;51.922;8.896;2024-01-30T02:34:40;45.03;;;25.57;;
2305;SDS011;1161;51.922;8.896;2024-01-30T02:37:07;52.23;;;25.43;;
2305;SDS011;1161;51.922;8.896;2024-01-30T02:39:36;44.40;;;25.77;;
2305;SDS011;1161;51.922;8.896;2024-01-30T02:42:03;54.10;;;26.27;;
2305;SDS011;1161;51.922;8.896;2024-01-30T02:44:32;53.43;;;28.57;;
2305;SDS011;1161;51.922;8.896;2024-01-30T02:46:59;60.90;;;30.33;;
2305;SDS011;1161;51.922;8.896;2024-01-30T02:49:26;63.50;;;31.23;;
2305;SDS011;1161;51.922;8.896;2024-01-30T02:51:53;57.97;;;32.37;;
2305;SDS011;1161;51.922;8.896;2024-01-30T02:54:20;59.03;;;31.87;;
2305;SDS011;1161;51.922;8.896;2024-01-30T02:56:48;56.53;;;28.40;;
2305;SDS011;1161;51.922;8.896;2024-01-30T02:59:15;60.33;;;26.73;;
2305;SDS011;1161;51.922;8.896;2024-01-30T03:01:42;47.93;;;26.90;;
2305;SDS011;1161;51.922;8.896;2024-01-30T03:04:10;56.57;;;28.90;;
2305;SDS011;1161;51.922;8.896;2024-01-30T03:06:37;51.03;;;25.90;;
2305;SDS011;1161;51.922;8.896;2024-01-30T03:09:03;54.17;;;27.50;;
2305;SDS011;1161;51.922;8.896;2024-01-30T03:11:30;48.70;;;27.73;;
2305;SDS011;1161;51.922;8.896;2024-01-30T03:13:58;48.77;;;26.67;;
2305;SDS011;1161;51.922;8.896;2024-01-30T03:16:25;48.73;;;29.40;;
2305;SDS011;1161;51.922;8.896;2024-01-30T03:18:52;48.80;;;26.27;;
2305;SDS011;1161;51.922;8.896;2024-01-30T03:21:19;53.07;;;26.93;;
2305;SDS011;1161;51.922;8.896;2024-01-30T03:23:46;52.27;;;28.53;;
2305;SDS011;1161;51.922;8.896;2024-01-30T03:26:13;57.53;;;29.77;;
2305;SDS011;1161;51.922;8.896;2024-01-30T03:28:41;49.03;;;26.00;;
2305;SDS011;1161;51.922;8.896;2024-01-30T03:31:08;48.27;;;25.90;;
2305;SDS011;1161;51.922;8.896;2024-01-30T03:33:36;54.20;;;28.90;;
2305;SDS011;1161;51.922;8.896;2024-01-30T03:36:03;57.03;;;28.40;;
2305;SDS011;1161;51.922;8.896;2024-01-30T03:38:30;54.40;;;29.13;;
2305;SDS011;1161;51.922;8.896;2024-01-30T03:40:58;39.67;;;25.03;;
2305;SDS011;1161;51.922;8.896;2024-01-30T03:43:25;47.03;;;29.03;;
2305;SDS011;1161;51.922;8.896;2024-01-30T03:45:51;52.60;;;28.17;;
2305;SDS011;1161;51.922;8.896;2024-01-30T03:48:19;52.07;;;27.53;;
2305;SDS011;1161;51.922;8.896;2024-01-30T03:50:47;45.47;;;25.93;;
2305;SDS011;1161;51.922;8.896;2024-01-30T03:53:14;55.50;;;26.87;;
2305;SDS011;1161;51.922;8.896;2024-01-30T03:55:40;56.80;;;27.87;;
2305;SDS011;1161;51.922;8.896;2024-01-30T03:58:07;59.70;;;28.77;;
2305;SDS011;1161;51.922;8.896;2024-01-30T04:00:34;58.40;;;30.50;;
2305;SDS011;1161;51.922;8.896;2024-01-30T04:03:01;54.80;;;31.20;;
2305;SDS011;1161;51.922;8.896;2024-01-30T04:05:29;67.63;;;32.13;;
2305;SDS011;1161;51.922;8.896;2024-01-30T04:07:56;65.27;;;32.30;;
2305;SDS011;1161;51.922;8.896;2024-01-30T04:10:23;65.90;;;32.87;;
2305;SDS011;1161;51.922;8.896;2024-01-30T04:12:50;54.90;;;31.53;;
2305;SDS011;1161;51.922;8.896;2024-01-30T04:15:19;57.87;;;30.70;;
2305;SDS011;1161;51.922;8.896;2024-01-30T04:17:46;50.23;;;28.97;;
2305;SDS011;1161;51.922;8.896;2024-01-30T04:20:13;62.50;;;32.07;;
2305;SDS011;1161;51.922;8.896;2024-01-30T04:22:42;50.73;;;27.80;;
2305;SDS011;1161;51.922;8.896;2024-01-30T04:25:17;58.07;;;29.13;;
2305;SDS011;1161;51.922;8.896;2024-01-30T04:27:45;50.77;;;28.33;;
2305;SDS011;1161;51.922;8.896;2024-01-30T04:30:13;68.27;;;30.00;;
2305;SDS011;1161;51.922;8.896;2024-01-30T04:32:41;51.83;;;27.50;;
2305;SDS011;1161;51.922;8.896;2024-01-30T04:35:09;51.47;;;26.07;;
2305;SDS011;1161;51.922;8.896;2024-01-30T04:37:37;50.77;;;25.93;;
2305;SDS011;1161;51.922;8.896;2024-01-30T04:40:07;47.03;;;24.13;;
2305;SDS011;1161;51.922;8.896;2024-01-30T04:42:35;54.43;;;27.83;;
2305;SDS011;1161;51.922;8.896;2024-01-30T04:45:05;63.03;;;28.30;;
2305;SDS011;1161;51.922;8.896;2024-01-30T04:47:35;62.53;;;26.93;;
2305;SDS011;1161;51.922;8.896;2024-01-30T04:50:02;56.40;;;27.63;;
2305;SDS011;1161;51.922;8.896;2024-01-30T04:52:31;52.10;;;29.60;;
2305;SDS011;1161;51.922;8.896;2024-01-30T04:54:59;50.80;;;25.77;;
2305;SDS011;1161;51.922;8.896;2024-01-30T04:57:31;52.27;;;26.27;;
2305;SDS011;1161;51.922;8.896;2024-01-30T05:00:02;53.60;;;26.47;;
2305;SDS011;1161;51.922;8.896;2024-01-30T05:02:31;55.87;;;30.57;;
2305;SDS011;1161;51.922;8.896;2024-01-30T05:04:59;52.50;;;26.00;;
2305;SDS011;1161;51.922;8.896;2024-01-30T05:07:32;63.70;;;30.87;;
2305;SDS011;1161;51.922;8.896;2024-01-30T05:10:00;57.43;;;27.70;;
2305;SDS011;1161;51.922;8.896;2024-01-30T05:12:26;57.00;;;28.63;;
2305;SDS011;1161;51.922;8.896;2024-01-30T05:14:57;60.07;;;28.63;;
2305;SDS011;1161;51.922;8.896;2024-01-30T05:17:25;54.53;;;27.50;;
2305;SDS011;1161;51.922;8.896;2024-01-30T05:19:53;54.27;;;29.33;;
2305;SDS011;1161;51.922;8.896;2024-01-30T05:22:21;53.47;;;28.63;;
2305;SDS011;1161;51.922;8.896;2024-01-30T05:24:57;60.13;;;27.37;;
2305;SDS011;1161;51.922;8.896;2024-01-30T05:27:25;61.60;;;28.23;;
2305;SDS011;1161;51.922;8.896;2024-01-30T05:30:11;58.67;;;27.80;;
2305;SDS011;1161;51.922;8.896;2024-01-30T05:32:39;56.10;;;29.17;;
2305;SDS011;1161;51.922;8.896;2024-01-30T05:35:07;58.07;;;31.20;;
2305;SDS011;1161;51.922;8.896;2024-01-30T05:37:35;58.97;;;28.87;;
2305;SDS011;1161;51.922;8.896;2024-01-30T05:40:07;58.07;;;25.00;;
2305;SDS011;1161;51.922;8.896;2024-01-30T05:42:35;59.73;;;26.60;;
2305;SDS011;1161;51.922;8.896;2024-01-30T05:45:03;50.50;;;27.23;;
2305;SDS011;1161;51.922;8.896;2024-01-30T05:47:34;51.67;;;28.00;;
2305;SDS011;1161;51.922;8.896;2024-01-30T05:50:21;67.77;;;28.87;;
2305;SDS011;1161;51.922;8.896;2024-01-30T05:52:50;53.80;;;31.03;;
2305;SDS011;1161;51.922;8.896;2024-01-30T05:55:17;60.67;;;28.93;;
2305;SDS011;1161;51.922;8.896;2024-01-30T05:57:44;47.40;;;28.77;;
2305;SDS011;1161;51.922;8.896;2024-01-30T06:00:11;51.17;;;26.37;;
2305;SDS011;1161;51.922;8.896;2024-01-30T06:02:39;45.57;;;25.20;;
2305;SDS011;1161;51.922;8.896;2024-01-30T06:05:06;48.93;;;24.53;;
2305;SDS011;1161;51.922;8.896;2024-01-30T06:07:33;60.83;;;27.77;;
2305;SDS011;1161;51.922;8.896;2024-01-30T06:10:00;67.80;;;31.20;;
2305;SDS011;1161;51.922;8.896;2024-01-30T06:12:27;53.00;;;29.17;;
2305;SDS011;1161;51.922;8.896;2024-01-30T06:14:54;52.40;;;27.80;;
2305;SDS011;1161;51.922;8.896;2024-01-30T06:17:22;68.37;;;30.23;;
2305;SDS011;1161;51.922;8.896;2024-01-30T06:19:50;59.33;;;29.23;;
2305;SDS011;1161;51.922;8.896;2024-01-30T06:22:17;49.43;;;27.83;;
2305;SDS011;1161;51.922;8.896;2024-01-30T06:24:44;45.73;;;27.27;;
2305;SDS011;1161;51.922;8.896;2024-01-30T06:27:13;50.97;;;26.10;;
2305;SDS011;1161;51.922;8.896;2024-01-30T06:29:40;56.30;;;27.57;;
2305;SDS011;1161;51.922;8.896;2024-01-30T06:32:06;62.60;;;26.90;;
2305;SDS011;1161;51.922;8.896;2024-01-30T06:34:33;49.67;;;27.83;;
2305;SDS011;1161;51.922;8.896;2024-01-30T06:37:02;62.47;;;30.63;;
2305;SDS011;1161;51.922;8.896;2024-01-30T06:39:29;51.30;;;27.33;;
2305;SDS011;1161;51.922;8.896;2024-01-30T06:41:55;64.57;;;29.97;;
2305;SDS011;1161;51.922;8.896;2024-01-30T06:44:22;44.60;;;26.30;;
2305;SDS011;1161;51.922;8.896;2024-01-30T06:46:49;55.53;;;26.67;;
2305;SDS011;1161;51.922;8.896;2024-01-30T06:49:16;50.70;;;29.10;;
2305;SDS011;1161;51.922;8.896;2024-01-30T06:51:42;47.33;;;27.97;;
2305;SDS011;1161;51.922;8.896;2024-01-30T06:54:11;63.57;;;27.80;;
2305;SDS011;1161;51.922;8.896;2024-01-30T06:56:37;67.97;;;28.17;;
2305;SDS011;1161;51.922;8.896;2024-01-30T06:59:04;65.77;;;31.70;;
2305;SDS011;1161;51.922;8.896;2024-01-30T07:01:31;52.93;;;31.13;;
2305;SDS011;1161;51.922;8.896;2024-01-30T07:03:58;63.40;;;30.77;;
2305;SDS011;1161;51.922;8.896;2024-01-30T07:06:24;66.60;;;31.30;;
2305;SDS011;1161;51.922;8.896;2024-01-30T07:08:51;60.47;;;29.00;;
2305;SDS011;1161;51.922;8.896;2024-01-30T07:11:19;58.40;;;31.13;;
2305;SDS011;1161;51.922;8.896;2024-01-30T07:13:47;54.53;;;30.20;;
2305;SDS011;1161;51.922;8.896;2024-01-30T07:16:14;52.70;;;27.37;;
2305;SDS011;1161;51.922;8.896;2024-01-30T07:18:41;50.53;;;27.83;;
2305;SDS011;1161;51.922;8.896;2024-01-30T07:21:08;67.63;;;27.87;;
2305;SDS011;1161;51.922;8.896;2024-01-30T07:23:35;58.70;;;30.07;;
2305;SDS011;1161;51.922;8.896;2024-01-30T07:26:04;61.50;;;26.07;;
2305;SDS011;1161;51.922;8.896;2024-01-30T07:28:33;56.60;;;26.87;;
2305;SDS011;1161;51.922;8.896;2024-01-30T07:31:00;53.97;;;31.00;;
2305;SDS011;1161;51.922;8.896;2024-01-30T07:33:27;51.90;;;28.10;;
2305;SDS011;1161;51.922;8.896;2024-01-30T07:35:54;55.80;;;27.53;;
2305;SDS011;1161;51.922;8.896;2024-01-30T07:38:21;66.80;;;29.50;;
2305;SDS011;1161;51.922;8.896;2024-01-30T07:40:47;46.57;;;25.17;;
2305;SDS011;1161;51.922;8.896;2024-01-30T07:43:14;50.17;;;27.40;;
2305;SDS011;1161;51.922;8.896;2024-01-30T07:45:42;54.90;;;26.97;;
2305;SDS011;1161;51.922;8.896;2024-01-30T07:48:09;51.57;;;27.27;;
2305;SDS011;1161;51.922;8.896;2024-01-30T07:50:35;57.43;;;28.93;;
2305;SDS011;1161;51.922;8.896;2024-01-30T07:53:02;64.93;;;26.60;;
2305;SDS011;1161;51.922;8.896;2024-01-30T07:55:29;45.77;;;23.27;;
2305;SDS011;1161;51.922;8.896;2024-01-30T07:57:58;59.07;;;28.90;;
2305;SDS011;1161;51.922;8.896;2024-01-30T08:00:25;60.83;;;27.23;;
2305;SDS011;1161;51.922;8.896;2024-01-30T08:02:54;59.03;;;28.17;;
2305;SDS011;1161;51.922;8.896;2024-01-30T08:05:21;59.40;;;24.97;;
2305;SDS011;1161;51.922;8.896;2024-01-30T08:07:48;50.20;;;27.03;;
2305;SDS011;1161;51.922;8.896;2024-01-30T08:10:15;46.40;;;25.73;;
2305;SDS011;1161;51.922;8.896;2024-01-30T08:12:43;49.83;;;25.77;;
2305;SDS011;1161;51.922;8.896;2024-01-30T08:15:11;45.93;;;25.23;;
2305;SDS011;1161;51.922;8.896;2024-01-30T08:17:38;52.27;;;25.00;;
2305;SDS011;1161;51.922;8.896;2024-01-30T08:20:07;53.10;;;27.90;;
2305;SDS011;1161;51.922;8.896;2024-01-30T08:22:37;47.10;;;25.97;;
2305;SDS011;1161;51.922;8.896;2024-01-30T08:25:05;42.67;;;23.90;;
2305;SDS011;1161;51.922;8.896;2024-01-30T08:27:33;39.23;;;23.00;;
2305;SDS011;1161;51.922;8.896;2024-01-30T08:30:00;54.20;;;25.20;;
2305;SDS011;1161;51.922;8.896;2024-01-30T08:32:27;48.60;;;21.80;;
2305;SDS011;1161;51.922;8.896;2024-01-30T08:34:54;44.07;;;23.47;;
2305;SDS011;1161;51.922;8.896;2024-01-30T08:37:22;48.30;;;25.33;;
2305;SDS011;1161;51.922;8.896;2024-01-30T08:39:49;50.30;;;23.53;;
2305;SDS011;1161;51.922;8.896;2024-01-30T08:42:16;45.93;;;23.87;;
2305;SDS011;1161;51.922;8.896;2024-01-30T08:44:44;35.40;;;21.33;;
2305;SDS011;1161;51.922;8.896;2024-01-30T08:47:10;38.20;;;20.87;;
2305;SDS011;1161;51.922;8.896;2024-01-30T08:49:38;51.17;;;24.43;;
2305;SDS011;1161;51.922;8.896;2024-01-30T08:52:05;51.87;;;23.40;;
2305;SDS011;1161;51.922;8.896;2024-01-30T08:54:33;48.53;;;24.40;;
2305;SDS011;1161;51.922;8.896;2024-01-30T08:57:00;40.53;;;23.20;;
2305;SDS011;1161;51.922;8.896;2024-01-30T08:59:27;49.30;;;28.47;;
2305;SDS011;1161;51.922;8.896;2024-01-30T09:01:54;45.10;;;23.97;;
2305;SDS011;1161;51.922;8.896;2024-01-30T09:04:23;45.47;;;24.77;;
2305;SDS011;1161;51.922;8.896;2024-01-30T09:06:50;47.13;;;25.47;;
2305;SDS011;1161;51.922;8.896;2024-01-30T09:09:17;53.37;;;24.07;;
2305;SDS011;1161;51.922;8.896;2024-01-30T09:11:45;52.93;;;26.13;;
2305;SDS011;1161;51.922;8.896;2024-01-30T09:14:12;43.40;;;22.70;;
2305;SDS011;1161;51.922;8.896;2024-01-30T09:16:39;49.00;;;25.37;;
2305;SDS011;1161;51.922;8.896;2024-01-30T09:19:06;42.83;;;24.10;;
2305;SDS011;1161;51.922;8.896;2024-01-30T09:21:33;49.13;;;25.00;;
2305;SDS011;1161;51.922;8.896;2024-01-30T09:24:01;62.30;;;27.17;;
2305;SDS011;1161;51.922;8.896;2024-01-30T09:26:29;52.10;;;26.17;;
2305;SDS011;1161;51.922;8.896;2024-01-30T09:28:57;50.63;;;25.83;;
2305;SDS011;1161;51.922;8.896;2024-01-30T09:31:24;53.80;;;26.17;;
2305;SDS011;1161;51.922;8.896;2024-01-30T09:33:51;48.00;;;24.50;;
2305;SDS011;1161;51.922;8.896;2024-01-30T09:36:19;59.27;;;27.53;;
2305;SDS011;1161;51.922;8.896;2024-01-30T09:38:46;45.77;;;25.77;;
2305;SDS011;1161;51.922;8.896;2024-01-30T09:41:13;40.97;;;24.53;;
2305;SDS011;1161;51.922;8.896;2024-01-30T09:43:39;48.83;;;24.83;;
2305;SDS011;1161;51.922;8.896;2024-01-30T09:46:10;45.80;;;22.50;;
2305;SDS011;1161;51.922;8.896;2024-01-30T09:48:38;49.60;;;25.00;;
2305;SDS011;1161;51.922;8.896;2024-01-30T09:51:06;45.30;;;25.00;;
2305;SDS011;1161;51.922;8.896;2024-01-30T09:53:33;56.00;;;25.30;;
2305;SDS011;1161;51.922;8.896;2024-01-30T09:56:01;44.93;;;25.37;;
2305;SDS011;1161;51.922;8.896;2024-01-30T09:58:29;39.40;;;23.93;;
2305;SDS011;1161;51.922;8.896;2024-01-30T10:00:56;42.60;;;24.23;;
2305;SDS011;1161;51.922;8.896;2024-01-30T10:03:24;38.00;;;23.13;;
2305;SDS011;1161;51.922;8.896;2024-01-30T10:05:52;47.37;;;24.93;;
2305;SDS011;1161;51.922;8.896;2024-01-30T10:08:19;36.87;;;20.10;;
2305;SDS011;1161;51.922;8.896;2024-01-30T10:10:46;40.47;;;21.37;;
2305;SDS011;1161;51.922;8.896;2024-01-30T10:13:13;35.93;;;21.77;;
2305;SDS011;1161;51.922;8.896;2024-01-30T10:15:40;39.70;;;21.33;;
2305;SDS011;1161;51.922;8.896;2024-01-30T10:18:08;38.63;;;20.97;;
2305;SDS011;1161;51.922;8.896;2024-01-30T10:20:37;37.13;;;23.03;;
2305;SDS011;1161;51.922;8.896;2024-01-30T10:23:04;39.60;;;22.50;;
2305;SDS011;1161;51.922;8.896;2024-01-30T10:25:30;45.17;;;23.03;;
2305;SDS011;1161;51.922;8.896;2024-01-30T10:27:58;49.63;;;22.57;;
2305;SDS011;1161;51.922;8.896;2024-01-30T10:30:27;43.67;;;22.40;;
2305;SDS011;1161;51.922;8.896;2024-01-30T10:32:54;30.57;;;20.97;;
2305;SDS011;1161;51.922;8.896;2024-01-30T10:35:20;40.70;;;23.63;;
2305;SDS011;1161;51.922;8.896;2024-01-30T10:37:49;44.53;;;22.57;;
2305;SDS011;1161;51.922;8.896;2024-01-30T10:40:16;49.60;;;23.47;;
2305;SDS011;1161;51.922;8.896;2024-01-30T10:42:43;35.63;;;20.67;;
2305;SDS011;1161;51.922;8.896;2024-01-30T10:45:11;39.37;;;21.70;;
2305;SDS011;1161;51.922;8.896;2024-01-30T10:47:39;45.43;;;22.53;;
2305;SDS011;1161;51.922;8.896;2024-01-30T10:50:07;35.77;;;19.70;;
2305;SDS011;1161;51.922;8.896;2024-01-30T10:52:36;34.23;;;19.50;;
2305;SDS011;1161;51.922;8.896;2024-01-30T10:55:05;45.53;;;20.27;;
2305;SDS011;1161;51.922;8.896;2024-01-30T10:57:33;38.53;;;20.97;;
2305;SDS011;1161;51.922;8.896;2024-01-30T11:00:02;31.13;;;20.07;;
2305;SDS011;1161;51.922;8.896;2024-01-30T11:02:35;38.13;;;22.00;;
2305;SDS011;1161;51.922;8.896;2024-01-30T11:05:04;35.23;;;20.17;;
2305;SDS011;1161;51.922;8.896;2024-01-30T11:07:31;33.10;;;19.37;;
2305;SDS011;1161;51.922;8.896;2024-01-30T11:10:01;30.03;;;18.43;;
2305;SDS011;1161;51.922;8.896;2024-01-30T11:12:31;41.27;;;20.90;;
2305;SDS011;1161;51.922;8.896;2024-01-30T11:15:03;36.73;;;19.20;;
2305;SDS011;1161;51.922;8.896;2024-01-30T11:17:41;32.47;;;19.30;;
2305;SDS011;1161;51.922;8.896;2024-01-30T11:20:09;28.63;;;18.57;;
2305;SDS011;1161;51.922;8.896;2024-01-30T11:22:37;34.07;;;17.97;;
2305;SDS011;1161;51.922;8.896;2024-01-30T11:25:04;40.20;;;20.03;;
2305;SDS011;1161;51.922;8.896;2024-01-30T11:27:33;27.47;;;16.93;;
2305;SDS011;1161;51.922;8.896;2024-01-30T11:30:01;32.73;;;18.03;;
2305;SDS011;1161;51.922;8.896;2024-01-30T11:32:28;24.67;;;15.80;;
2305;SDS011;1161;51.922;8.896;2024-01-30T11:34:54;23.73;;;15.60;;
2305;SDS011;1161;51.922;8.896;2024-01-30T11:37:21;28.80;;;15.63;;
2305;SDS011;1161;51.922;8.896;2024-01-30T11:39:52;31.50;;;16.90;;
2305;SDS011;1161;51.922;8.896;2024-01-30T11:42:20;31.63;;;17.40;;
2305;SDS011;1161;51.922;8.896;2024-01-30T11:44:53;30.90;;;16.60;;
2305;SDS011;1161;51.922;8.896;2024-01-30T11:47:20;31.17;;;16.73;;
2305;SDS011;1161;51.922;8.896;2024-01-30T11:49:46;28.63;;;17.77;;
2305;SDS011;1161;51.922;8.896;2024-01-30T11:52:14;34.63;;;16.50;;
2305;SDS011;1161;51.922;8.896;2024-01-30T11:54:40;23.77;;;15.70;;
2305;SDS011;1161;51.922;8.896;2024-01-30T11:57:07;24.83;;;14.80;;
2305;SDS011;1161;51.922;8.896;2024-01-30T11:59:35;21.57;;;15.00;;
2305;SDS011;1161;51.922;8.896;2024-01-30T12:02:03;23.67;;;14.67;;
2305;SDS011;1161;51.922;8.896;2024-01-30T12:04:30;19.87;;;14.00;;
2305;SDS011;1161;51.922;8.896;2024-01-30T12:06:56;21.97;;;14.30;;
2305;SDS011;1161;51.922;8.896;2024-01-30T12:09:23;30.00;;;15.60;;
2305;SDS011;1161;51.922;8.896;2024-01-30T12:11:50;28.33;;;13.80;;
2305;SDS011;1161;51.922;8.896;2024-01-30T12:14:17;22.93;;;15.00;;
2305;SDS011;1161;51.922;8.896;2024-01-30T12:16:47;26.13;;;13.60;;
2305;SDS011;1161;51.922;8.896;2024-01-30T12:19:22;26.67;;;14.20;;
2305;SDS011;1161;51.922;8.896;2024-01-30T12:21:53;24.97;;;15.03;;
2305;SDS011;1161;51.922;8.896;2024-01-30T12:24:21;23.33;;;13.67;;
2305;SDS011;1161;51.922;8.896;2024-01-30T12:26:48;19.53;;;13.90;;
2305;SDS011;1161;51.922;8.896;2024-01-30T12:29:15;19.57;;;10.67;;
2305;SDS011;1161;51.922;8.896;2024-01-30T12:31:42;19.50;;;10.50;;
2305;SDS011;1161;51.922;8.896;2024-01-30T12:34:09;15.43;;;9.90;;
2305;SDS011;1161;51.922;8.896;2024-01-30T12:36:37;13.13;;;8.50;;
2305;SDS011;1161;51.922;8.896;2024-01-30T12:39:03;14.73;;;8.40;;
2305;SDS011;1161;51.922;8.896;2024-01-30T12:41:31;17.37;;;7.10;;
2305;SDS011;1161;51.922;8.896;2024-01-30T12:43:57;24.37;;;7.17;;
2305;SDS011;1161;51.922;8.896;2024-01-30T12:46:27;13.03;;;6.17;;
2305;SDS011;1161;51.922;8.896;2024-01-30T12:48:55;11.20;;;7.47;;
2305;SDS011;1161;51.922;8.896;2024-01-30T12:51:22;7.70;;;5.57;;
2305;SDS011;1161;51.922;8.896;2024-01-30T12:53:50;10.23;;;6.50;;
2305;SDS011;1161;51.922;8.896;2024-01-30T12:56:16;20.80;;;7.60;;
2305;SDS011;1161;51.922;8.896;2024-01-30T12:58:43;9.40;;;6.03;;
2305;SDS011;1161;51.922;8.896;2024-01-30T13:01:09;11.50;;;7.43;;
2305;SDS011;1161;51.922;8.896;2024-01-30T13:03:36;7.63;;;6.13;;
2305;SDS011;1161;51.922;8.896;2024-01-30T13:06:03;19.00;;;7.47;;
2305;SDS011;1161;51.922;8.896;2024-01-30T13:08:30;12.73;;;6.70;;
2305;SDS011;1161;51.922;8.896;2024-01-30T13:10:58;9.70;;;6.57;;
2305;SDS011;1161;51.922;8.896;2024-01-30T13:13:25;13.07;;;7.80;;
2305;SDS011;1161;51.922;8.896;2024-01-30T13:15:52;10.33;;;7.63;;
2305;SDS011;1161;51.922;8.896;2024-01-30T13:18:18;13.37;;;7.90;;
2305;SDS011;1161;51.922;8.896;2024-01-30T13:20:46;23.27;;;9.07;;
2305;SDS011;1161;51.922;8.896;2024-01-30T13:23:12;11.80;;;8.23;;
2305;SDS011;1161;51.922;8.896;2024-01-30T13:25:39;14.50;;;7.80;;
2305;SDS011;1161;51.922;8.896;2024-01-30T13:28:07;13.90;;;8.10;;
2305;SDS011;1161;51.922;8.896;2024-01-30T13:30:34;13.20;;;8.60;;
2305;SDS011;1161;51.922;8.896;2024-01-30T13:33:01;12.97;;;6.97;;
2305;SDS011;1161;51.922;8.896;2024-01-30T13:35:28;21.10;;;8.00;;
2305;SDS011;1161;51.922;8.896;2024-01-30T13:37:55;16.43;;;9.53;;
2305;SDS011;1161;51.922;8.896;2024-01-30T13:40:22;27.60;;;14.30;;
2305;SDS011;1161;51.922;8.896;2024-01-30T13:42:48;10.80;;;6.90;;
2305;SDS011;1161;51.922;8.896;2024-01-30T13:45:16;12.60;;;7.50;;
2305;SDS011;1161;51.922;8.896;2024-01-30T13:47:44;13.73;;;6.90;;
2305;SDS011;1161;51.922;8.896;2024-01-30T13:50:11;13.47;;;8.50;;
2305;SDS011;1161;51.922;8.896;2024-01-30T13:52:40;17.50;;;8.07;;
2305;SDS011;1161;51.922;8.896;2024-01-30T13:55:07;19.83;;;7.57;;
2305;SDS011;1161;51.922;8.896;2024-01-30T13:57:34;15.50;;;7.23;;
2305;SDS011;1161;51.922;8.896;2024-01-30T14:00:05;11.63;;;8.37;;
2305;SDS011;1161;51.922;8.896;2024-01-30T14:02:34;15.13;;;7.00;;
2305;SDS011;1161;51.922;8.896;2024-01-30T14:05:01;20.33;;;10.27;;
2305;SDS011;1161;51.922;8.896;2024-01-30T14:07:29;18.00;;;8.67;;
2305;SDS011;1161;51.922;8.896;2024-01-30T14:09:56;13.10;;;8.40;;
2305;SDS011;1161;51.922;8.896;2024-01-30T14:12:23;16.13;;;9.40;;
2305;SDS011;1161;51.922;8.896;2024-01-30T14:14:49;11.53;;;8.20;;
2305;SDS011;1161;51.922;8.896;2024-01-30T14:17:16;19.50;;;10.70;;
2305;SDS011;1161;51.922;8.896;2024-01-30T14:19:45;15.10;;;9.10;;
2305;SDS011;1161;51.922;8.896;2024-01-30T14:22:11;15.00;;;8.40;;
2305;SDS011;1161;51.922;8.896;2024-01-30T14:24:38;17.53;;;9.27;;
2305;SDS011;1161;51.922;8.896;2024-01-30T14:27:05;17.43;;;9.37;;
2305;SDS011;1161;51.922;8.896;2024-01-30T14:29:33;19.13;;;8.60;;
2305;SDS011;1161;51.922;8.896;2024-01-30T14:32:00;17.03;;;9.57;;
2305;SDS011;1161;51.922;8.896;2024-01-30T14:34:26;15.83;;;8.93;;
2305;SDS011;1161;51.922;8.896;2024-01-30T14:36:54;14.87;;;9.87;;
2305;SDS011;1161;51.922;8.896;2024-01-30T14:39:22;16.43;;;10.10;;
2305;SDS011;1161;51.922;8.896;2024-01-30T14:41:49;13.87;;;9.33;;
2305;SDS011;1161;51.922;8.896;2024-01-30T14:44:15;22.23;;;12.40;;
2305;SDS011;1161;51.922;8.896;2024-01-30T14:46:42;18.57;;;10.73;;
2305;SDS011;1161;51.922;8.896;2024-01-30T14:49:09;30.60;;;10.47;;
2305;SDS011;1161;51.922;8.896;2024-01-30T14:51:36;20.43;;;9.10;;